sensor_id;sensor_type;location;lat;lon;timestamp;P1;durP1;ratioP1;P2;durP2;ratioP2
16524;SDS011;8375;33.594;-117.718;2022-08-04T00:00:28;7.18;;;3.75;;
16524;SDS011;8375;33.594;-117.718;2022-08-04T00:03:00;4.78;;;3.00;;
16524;SDS011;8375;33.594;-117.718;2022-08-04T00:05:43;7.10;;;3.50;;
16524;SDS011;8375;33.594;-117.718;2022-08-04T00:08:22;5.07;;;2.95;;
16524;SDS011;8375;33.594;-117.718;2022-08-04T00:11:00;6.97;;;3.20;;
16524;SDS011;8375;33.594;-117.718;2022-08-04T00:13:30;7.32;;;3.22;;
16524;SDS011;8375;33.594;-117.718;2022-08-04T00:16:04;7.20;;;3.80;;
16524;SDS011;8375;33.594;-117.718;2022-08-04T00:18:38;6.25;;;3.05;;
16524;SDS011;8375;33.594;-117.718;2022-08-04T00:21:10;7.13;;;3.47;;
16524;SDS011;8375;33.594;-117.718;2022-08-04T00:23:41;5.65;;;3.08;;
16524;SDS011;8375;33.594;-117.718;2022-08-04T00:26:11;9.85;;;3.50;;
16524;SDS011;8375;33.594;-117.718;2022-08-04T00:28:43;5.45;;;3.47;;
16524;SDS011;8375;33.594;-117.718;2022-08-04T00:31:13;6.32;;;3.33;;
16524;SDS011;8375;33.594;-117.718;2022-08-04T00:33:42;5.72;;;3.38;;
16524;SDS011;8375;33.594;-117.718;2022-08-04T00:36:13;7.13;;;3.90;;
16524;SDS011;8375;33.594;-117.718;2022-08-04T00:38:43;8.35;;;3.70;;
16524;SDS011;8375;33.594;-117.718;2022-08-04T00:41:15;7.07;;;3.30;;
16524;SDS011;8375;33.594;-117.718;2022-08-04T00:43:57;9.00;;;3.33;;
16524;SDS011;8375;33.594;-117.718;2022-08-04T00:46:47;6.47;;;3.45;;
16524;SDS011;8375;33.594;-117.718;2022-08-04T00:49:44;8.43;;;3.30;;
16524;SDS011;8375;33.594;-117.718;2022-08-04T00:52:35;6.78;;;3.25;;
16524;SDS011;8375;33.594;-117.718;2022-08-04T00:55:18;7.25;;;2.95;;
16524;SDS011;8375;33.594;-117.718;2022-08-04T00:58:12;7.68;;;3.53;;
16524;SDS011;8375;33.594;-117.718;2022-08-04T01:00:58;6.40;;;3.33;;
16524;SDS011;8375;33.594;-117.718;2022-08-04T01:03:35;8.10;;;3.25;;
16524;SDS011;8375;33.594;-117.718;2022-08-04T01:06:17;4.55;;;2.97;;
16524;SDS011;8375;33.594;-117.718;2022-08-04T01:09:06;8.25;;;2.90;;
16524;SDS011;8375;33.594;-117.718;2022-08-04T01:11:56;8.57;;;3.15;;
16524;SDS011;8375;33.594;-117.718;2022-08-04T01:14:50;8.30;;;3.40;;
16524;SDS011;8375;33.594;-117.718;2022-08-04T01:17:32;7.60;;;2.80;;
16524;SDS011;8375;33.594;-117.718;2022-08-04T01:20:09;7.32;;;3.50;;
16524;SDS011;8375;33.594;-117.718;2022-08-04T01:31:38;7.38;;;3.50;;
16524;SDS011;8375;33.594;-117.718;2022-08-04T01:34:15;8.52;;;3.35;;
16524;SDS011;8375;33.594;-117.718;2022-08-04T01:36:52;5.35;;;3.30;;
16524;SDS011;8375;33.594;-117.718;2022-08-04T01:39:32;6.72;;;3.28;;
16524;SDS011;8375;33.594;-117.718;2022-08-04T01:42:10;5.25;;;3.13;;
16524;SDS011;8375;33.594;-117.718;2022-08-04T01:44:41;6.53;;;3.78;;
16524;SDS011;8375;33.594;-117.718;2022-08-04T01:47:13;7.13;;;3.50;;
16524;SDS011;8375;33.594;-117.718;2022-08-04T01:49:48;10.38;;;3.55;;
16524;SDS011;8375;33.594;-117.718;2022-08-04T01:52:18;7.90;;;3.90;;
16524;SDS011;8375;33.594;-117.718;2022-08-04T01:54:47;7.05;;;3.60;;
16524;SDS011;8375;33.594;-117.718;2022-08-04T01:57:17;9.35;;;3.78;;
16524;SDS011;8375;33.594;-117.718;2022-08-04T01:59:48;10.27;;;4.00;;
16524;SDS011;8375;33.594;-117.718;2022-08-04T02:02:21;6.07;;;3.38;;
16524;SDS011;8375;33.594;-117.718;2022-08-04T02:04:50;7.88;;;3.75;;
16524;SDS011;8375;33.594;-117.718;2022-08-04T02:07:27;9.75;;;4.47;;
16524;SDS011;8375;33.594;-117.718;2022-08-04T02:10:05;6.90;;;3.50;;
16524;SDS011;8375;33.594;-117.718;2022-08-04T02:12:37;9.07;;;3.55;;
16524;SDS011;8375;33.594;-117.718;2022-08-04T02:15:20;6.80;;;3.17;;
16524;SDS011;8375;33.594;-117.718;2022-08-04T02:18:00;7.82;;;2.80;;
16524;SDS011;8375;33.594;-117.718;2022-08-04T02:20:32;5.78;;;2.92;;
16524;SDS011;8375;33.594;-117.718;2022-08-04T02:23:03;5.50;;;2.78;;
16524;SDS011;8375;33.594;-117.718;2022-08-04T02:25:36;6.57;;;3.42;;
16524;SDS011;8375;33.594;-117.718;2022-08-04T02:28:20;5.80;;;3.60;;
16524;SDS011;8375;33.594;-117.718;2022-08-04T02:31:00;8.00;;;3.50;;
16524;SDS011;8375;33.594;-117.718;2022-08-04T02:33:35;7.72;;;3.88;;
16524;SDS011;8375;33.594;-117.718;2022-08-04T02:36:05;9.68;;;4.20;;
16524;SDS011;8375;33.594;-117.718;2022-08-04T02:41:25;6.75;;;3.83;;
16524;SDS011;8375;33.594;-117.718;2022-08-04T02:43:55;5.82;;;3.60;;
16524;SDS011;8375;33.594;-117.718;2022-08-04T02:46:28;8.15;;;3.33;;
16524;SDS011;8375;33.594;-117.718;2022-08-04T02:48:57;7.90;;;4.18;;
16524;SDS011;8375;33.594;-117.718;2022-08-04T02:51:29;7.22;;;4.00;;
16524;SDS011;8375;33.594;-117.718;2022-08-04T02:54:01;7.93;;;4.22;;
16524;SDS011;8375;33.594;-117.718;2022-08-04T02:56:31;11.10;;;4.07;;
16524;SDS011;8375;33.594;-117.718;2022-08-04T02:59:02;9.57;;;3.92;;
16524;SDS011;8375;33.594;-117.718;2022-08-04T03:01:34;8.32;;;4.05;;
16524;SDS011;8375;33.594;-117.718;2022-08-04T03:04:12;8.82;;;3.97;;
16524;SDS011;8375;33.594;-117.718;2022-08-04T03:07:01;8.40;;;4.40;;
16524;SDS011;8375;33.594;-117.718;2022-08-04T03:19:27;9.57;;;5.00;;
16524;SDS011;8375;33.594;-117.718;2022-08-04T03:22:15;9.00;;;4.97;;
16524;SDS011;8375;33.594;-117.718;2022-08-04T03:25:13;7.28;;;4.80;;
16524;SDS011;8375;33.594;-117.718;2022-08-04T03:31:26;10.77;;;5.10;;
16524;SDS011;8375;33.594;-117.718;2022-08-04T03:34:21;10.85;;;5.80;;
16524;SDS011;8375;33.594;-117.718;2022-08-04T03:37:10;9.52;;;4.90;;
16524;SDS011;8375;33.594;-117.718;2022-08-04T03:46:15;9.63;;;5.20;;
16524;SDS011;8375;33.594;-117.718;2022-08-04T03:49:12;10.85;;;5.68;;
16524;SDS011;8375;33.594;-117.718;2022-08-04T03:52:10;8.35;;;5.05;;
16524;SDS011;8375;33.594;-117.718;2022-08-04T03:55:15;12.15;;;5.43;;
16524;SDS011;8375;33.594;-117.718;2022-08-04T03:58:24;9.60;;;6.53;;
16524;SDS011;8375;33.594;-117.718;2022-08-04T04:01:11;9.90;;;5.90;;
16524;SDS011;8375;33.594;-117.718;2022-08-04T04:10:02;8.15;;;5.47;;
16524;SDS011;8375;33.594;-117.718;2022-08-04T04:16:00;13.57;;;6.07;;
16524;SDS011;8375;33.594;-117.718;2022-08-04T04:18:45;11.70;;;5.82;;
16524;SDS011;8375;33.594;-117.718;2022-08-04T04:21:32;13.30;;;5.88;;
16524;SDS011;8375;33.594;-117.718;2022-08-04T04:24:29;9.27;;;5.10;;
16524;SDS011;8375;33.594;-117.718;2022-08-04T04:27:08;7.65;;;5.35;;
16524;SDS011;8375;33.594;-117.718;2022-08-04T04:29:56;13.05;;;5.47;;
16524;SDS011;8375;33.594;-117.718;2022-08-04T04:32:41;12.77;;;5.45;;
16524;SDS011;8375;33.594;-117.718;2022-08-04T04:35:36;11.40;;;5.53;;
16524;SDS011;8375;33.594;-117.718;2022-08-04T04:38:31;10.45;;;5.80;;
16524;SDS011;8375;33.594;-117.718;2022-08-04T04:41:20;8.90;;;5.25;;
16524;SDS011;8375;33.594;-117.718;2022-08-04T04:44:13;10.82;;;5.65;;
16524;SDS011;8375;33.594;-117.718;2022-08-04T04:47:08;10.32;;;5.80;;
16524;SDS011;8375;33.594;-117.718;2022-08-04T04:49:48;15.32;;;5.70;;
16524;SDS011;8375;33.594;-117.718;2022-08-04T04:52:25;13.20;;;6.68;;
16524;SDS011;8375;33.594;-117.718;2022-08-04T04:54:58;12.82;;;6.32;;
16524;SDS011;8375;33.594;-117.718;2022-08-04T04:57:35;9.95;;;5.60;;
16524;SDS011;8375;33.594;-117.718;2022-08-04T05:00:05;9.77;;;5.35;;
16524;SDS011;8375;33.594;-117.718;2022-08-04T05:09:23;9.90;;;5.90;;
16524;SDS011;8375;33.594;-117.718;2022-08-04T05:12:22;10.23;;;5.82;;
16524;SDS011;8375;33.594;-117.718;2022-08-04T05:15:06;11.95;;;6.32;;
16524;SDS011;8375;33.594;-117.718;2022-08-04T05:17:36;13.00;;;6.40;;
16524;SDS011;8375;33.594;-117.718;2022-08-04T05:20:07;13.25;;;5.75;;
16524;SDS011;8375;33.594;-117.718;2022-08-04T05:22:41;13.20;;;6.63;;
16524;SDS011;8375;33.594;-117.718;2022-08-04T05:25:16;11.85;;;5.97;;
16524;SDS011;8375;33.594;-117.718;2022-08-04T05:27:50;12.65;;;6.47;;
16524;SDS011;8375;33.594;-117.718;2022-08-04T05:33:53;15.95;;;6.30;;
16524;SDS011;8375;33.594;-117.718;2022-08-04T05:36:25;12.40;;;6.45;;
16524;SDS011;8375;33.594;-117.718;2022-08-04T05:39:00;10.55;;;6.28;;
16524;SDS011;8375;33.594;-117.718;2022-08-04T05:41:29;16.42;;;7.53;;
16524;SDS011;8375;33.594;-117.718;2022-08-04T05:44:02;12.75;;;6.53;;
16524;SDS011;8375;33.594;-117.718;2022-08-04T05:46:32;17.08;;;7.18;;
16524;SDS011;8375;33.594;-117.718;2022-08-04T05:49:03;12.63;;;7.10;;
16524;SDS011;8375;33.594;-117.718;2022-08-04T05:51:33;15.60;;;6.50;;
16524;SDS011;8375;33.594;-117.718;2022-08-04T05:54:05;13.27;;;7.00;;
16524;SDS011;8375;33.594;-117.718;2022-08-04T05:56:36;12.60;;;6.60;;
16524;SDS011;8375;33.594;-117.718;2022-08-04T05:59:07;11.80;;;7.20;;
16524;SDS011;8375;33.594;-117.718;2022-08-04T06:01:37;16.50;;;7.07;;
16524;SDS011;8375;33.594;-117.718;2022-08-04T06:04:08;16.93;;;7.37;;
16524;SDS011;8375;33.594;-117.718;2022-08-04T06:06:37;15.50;;;6.87;;
16524;SDS011;8375;33.594;-117.718;2022-08-04T06:09:09;15.10;;;7.20;;
16524;SDS011;8375;33.594;-117.718;2022-08-04T06:11:38;16.20;;;7.35;;
16524;SDS011;8375;33.594;-117.718;2022-08-04T06:14:08;12.00;;;7.17;;
16524;SDS011;8375;33.594;-117.718;2022-08-04T06:16:40;17.98;;;7.03;;
16524;SDS011;8375;33.594;-117.718;2022-08-04T06:19:13;16.10;;;7.32;;
16524;SDS011;8375;33.594;-117.718;2022-08-04T06:21:45;24.73;;;8.48;;
16524;SDS011;8375;33.594;-117.718;2022-08-04T06:24:17;15.35;;;6.95;;
16524;SDS011;8375;33.594;-117.718;2022-08-04T06:26:50;18.88;;;7.05;;
16524;SDS011;8375;33.594;-117.718;2022-08-04T06:29:19;15.07;;;7.23;;
16524;SDS011;8375;33.594;-117.718;2022-08-04T06:31:54;17.20;;;7.33;;
16524;SDS011;8375;33.594;-117.718;2022-08-04T06:34:29;13.25;;;7.00;;
16524;SDS011;8375;33.594;-117.718;2022-08-04T06:36:59;17.70;;;7.63;;
16524;SDS011;8375;33.594;-117.718;2022-08-04T06:39:30;16.10;;;6.85;;
16524;SDS011;8375;33.594;-117.718;2022-08-04T06:42:00;13.57;;;6.73;;
16524;SDS011;8375;33.594;-117.718;2022-08-04T06:44:29;12.67;;;6.90;;
16524;SDS011;8375;33.594;-117.718;2022-08-04T06:46:59;13.10;;;6.90;;
16524;SDS011;8375;33.594;-117.718;2022-08-04T06:49:33;10.48;;;6.63;;
16524;SDS011;8375;33.594;-117.718;2022-08-04T06:52:04;17.23;;;6.65;;
16524;SDS011;8375;33.594;-117.718;2022-08-04T06:54:33;10.88;;;7.10;;
16524;SDS011;8375;33.594;-117.718;2022-08-04T06:57:02;17.33;;;7.38;;
16524;SDS011;8375;33.594;-117.718;2022-08-04T06:59:31;13.40;;;6.93;;
16524;SDS011;8375;33.594;-117.718;2022-08-04T07:02:00;12.43;;;7.13;;
16524;SDS011;8375;33.594;-117.718;2022-08-04T07:04:29;14.60;;;6.40;;
16524;SDS011;8375;33.594;-117.718;2022-08-04T07:07:00;12.15;;;6.75;;
16524;SDS011;8375;33.594;-117.718;2022-08-04T07:09:29;14.43;;;7.30;;
16524;SDS011;8375;33.594;-117.718;2022-08-04T07:12:06;13.23;;;6.53;;
16524;SDS011;8375;33.594;-117.718;2022-08-04T07:14:37;12.02;;;6.55;;
16524;SDS011;8375;33.594;-117.718;2022-08-04T07:17:09;15.85;;;7.22;;
16524;SDS011;8375;33.594;-117.718;2022-08-04T07:19:41;14.52;;;6.20;;
16524;SDS011;8375;33.594;-117.718;2022-08-04T07:22:12;10.73;;;6.67;;
16524;SDS011;8375;33.594;-117.718;2022-08-04T07:24:42;16.35;;;6.63;;
16524;SDS011;8375;33.594;-117.718;2022-08-04T07:27:10;16.80;;;6.70;;
16524;SDS011;8375;33.594;-117.718;2022-08-04T07:29:39;14.35;;;6.50;;
16524;SDS011;8375;33.594;-117.718;2022-08-04T07:32:08;14.20;;;6.83;;
16524;SDS011;8375;33.594;-117.718;2022-08-04T07:34:38;14.18;;;6.57;;
16524;SDS011;8375;33.594;-117.718;2022-08-04T07:37:08;16.85;;;6.70;;
16524;SDS011;8375;33.594;-117.718;2022-08-04T07:39:38;9.60;;;6.30;;
16524;SDS011;8375;33.594;-117.718;2022-08-04T07:42:07;11.43;;;6.40;;
16524;SDS011;8375;33.594;-117.718;2022-08-04T07:44:36;11.43;;;6.47;;
16524;SDS011;8375;33.594;-117.718;2022-08-04T07:47:05;14.27;;;6.67;;
16524;SDS011;8375;33.594;-117.718;2022-08-04T07:49:34;10.83;;;6.10;;
16524;SDS011;8375;33.594;-117.718;2022-08-04T07:52:03;15.77;;;6.90;;
16524;SDS011;8375;33.594;-117.718;2022-08-04T07:54:34;13.53;;;6.23;;
16524;SDS011;8375;33.594;-117.718;2022-08-04T07:57:04;12.30;;;5.93;;
16524;SDS011;8375;33.594;-117.718;2022-08-04T07:59:33;12.93;;;6.67;;
16524;SDS011;8375;33.594;-117.718;2022-08-04T08:02:02;11.50;;;6.63;;
16524;SDS011;8375;33.594;-117.718;2022-08-04T08:04:31;14.30;;;6.30;;
16524;SDS011;8375;33.594;-117.718;2022-08-04T08:07:00;11.97;;;6.33;;
16524;SDS011;8375;33.594;-117.718;2022-08-04T08:09:29;10.77;;;6.60;;
16524;SDS011;8375;33.594;-117.718;2022-08-04T08:12:00;13.53;;;6.43;;
16524;SDS011;8375;33.594;-117.718;2022-08-04T08:14:31;10.37;;;6.43;;
16524;SDS011;8375;33.594;-117.718;2022-08-04T08:17:00;12.97;;;6.93;;
16524;SDS011;8375;33.594;-117.718;2022-08-04T08:19:29;13.73;;;6.70;;
16524;SDS011;8375;33.594;-117.718;2022-08-04T08:21:59;12.90;;;6.33;;
16524;SDS011;8375;33.594;-117.718;2022-08-04T08:24:28;14.23;;;6.77;;
16524;SDS011;8375;33.594;-117.718;2022-08-04T08:26:58;13.80;;;6.80;;
16524;SDS011;8375;33.594;-117.718;2022-08-04T08:29:28;12.13;;;6.67;;
16524;SDS011;8375;33.594;-117.718;2022-08-04T08:32:00;18.60;;;7.07;;
16524;SDS011;8375;33.594;-117.718;2022-08-04T08:34:29;13.77;;;7.27;;
16524;SDS011;8375;33.594;-117.718;2022-08-04T08:37:01;10.70;;;7.00;;
16524;SDS011;8375;33.594;-117.718;2022-08-04T08:39:37;15.73;;;7.40;;
16524;SDS011;8375;33.594;-117.718;2022-08-04T08:45:37;17.03;;;7.63;;
16524;SDS011;8375;33.594;-117.718;2022-08-04T08:48:32;13.47;;;7.50;;
16524;SDS011;8375;33.594;-117.718;2022-08-04T08:51:30;16.73;;;7.07;;
16524;SDS011;8375;33.594;-117.718;2022-08-04T08:54:23;13.40;;;7.53;;
16524;SDS011;8375;33.594;-117.718;2022-08-04T08:57:10;13.63;;;7.90;;
16524;SDS011;8375;33.594;-117.718;2022-08-04T09:00:02;13.43;;;7.50;;
16524;SDS011;8375;33.594;-117.718;2022-08-04T09:08:49;13.10;;;7.93;;
16524;SDS011;8375;33.594;-117.718;2022-08-04T09:11:34;15.13;;;7.70;;
16524;SDS011;8375;33.594;-117.718;2022-08-04T09:14:09;15.07;;;8.30;;
16524;SDS011;8375;33.594;-117.718;2022-08-04T09:16:45;16.10;;;8.50;;
16524;SDS011;8375;33.594;-117.718;2022-08-04T09:19:19;12.50;;;8.00;;
16524;SDS011;8375;33.594;-117.718;2022-08-04T09:21:58;18.37;;;8.53;;
16524;SDS011;8375;33.594;-117.718;2022-08-04T09:24:32;13.17;;;7.67;;
16524;SDS011;8375;33.594;-117.718;2022-08-04T09:27:12;20.73;;;8.27;;
16524;SDS011;8375;33.594;-117.718;2022-08-04T09:29:46;15.40;;;8.33;;
16524;SDS011;8375;33.594;-117.718;2022-08-04T09:32:27;20.00;;;8.00;;
16524;SDS011;8375;33.594;-117.718;2022-08-04T09:35:05;18.50;;;8.10;;
16524;SDS011;8375;33.594;-117.718;2022-08-04T09:37:47;15.13;;;7.63;;
16524;SDS011;8375;33.594;-117.718;2022-08-04T09:40:31;16.03;;;8.27;;
16524;SDS011;8375;33.594;-117.718;2022-08-04T09:43:12;16.03;;;7.73;;
16524;SDS011;8375;33.594;-117.718;2022-08-04T09:45:49;21.73;;;8.53;;
16524;SDS011;8375;33.594;-117.718;2022-08-04T09:48:27;13.33;;;7.67;;
16524;SDS011;8375;33.594;-117.718;2022-08-04T09:51:12;15.77;;;8.57;;
16524;SDS011;8375;33.594;-117.718;2022-08-04T09:53:56;15.07;;;7.87;;
16524;SDS011;8375;33.594;-117.718;2022-08-04T09:56:33;17.47;;;7.70;;
16524;SDS011;8375;33.594;-117.718;2022-08-04T09:59:10;14.50;;;7.90;;
16524;SDS011;8375;33.594;-117.718;2022-08-04T10:01:50;15.60;;;8.20;;
16524;SDS011;8375;33.594;-117.718;2022-08-04T10:04:22;17.50;;;8.33;;
16524;SDS011;8375;33.594;-117.718;2022-08-04T10:07:12;12.70;;;7.10;;
16524;SDS011;8375;33.594;-117.718;2022-08-04T10:09:51;15.10;;;7.87;;
16524;SDS011;8375;33.594;-117.718;2022-08-04T10:12:40;14.53;;;7.83;;
16524;SDS011;8375;33.594;-117.718;2022-08-04T10:15:19;18.40;;;8.40;;
16524;SDS011;8375;33.594;-117.718;2022-08-04T10:18:02;13.67;;;8.10;;
16524;SDS011;8375;33.594;-117.718;2022-08-04T10:21:02;15.27;;;8.00;;
16524;SDS011;8375;33.594;-117.718;2022-08-04T10:23:47;18.30;;;8.23;;
16524;SDS011;8375;33.594;-117.718;2022-08-04T10:26:30;17.63;;;9.00;;
16524;SDS011;8375;33.594;-117.718;2022-08-04T10:29:04;15.07;;;8.37;;
16524;SDS011;8375;33.594;-117.718;2022-08-04T10:31:43;20.57;;;8.43;;
16524;SDS011;8375;33.594;-117.718;2022-08-04T10:34:16;19.87;;;9.27;;
16524;SDS011;8375;33.594;-117.718;2022-08-04T10:36:50;19.37;;;8.50;;
16524;SDS011;8375;33.594;-117.718;2022-08-04T10:39:30;15.40;;;8.53;;
16524;SDS011;8375;33.594;-117.718;2022-08-04T10:42:12;20.27;;;9.23;;
16524;SDS011;8375;33.594;-117.718;2022-08-04T10:44:52;20.30;;;9.60;;
16524;SDS011;8375;33.594;-117.718;2022-08-04T10:47:34;17.47;;;9.30;;
16524;SDS011;8375;33.594;-117.718;2022-08-04T10:50:10;19.03;;;9.33;;
16524;SDS011;8375;33.594;-117.718;2022-08-04T10:52:43;29.37;;;10.40;;
16524;SDS011;8375;33.594;-117.718;2022-08-04T10:55:16;16.57;;;9.23;;
16524;SDS011;8375;33.594;-117.718;2022-08-04T10:57:49;23.80;;;9.73;;
16524;SDS011;8375;33.594;-117.718;2022-08-04T11:00:23;18.87;;;9.37;;
16524;SDS011;8375;33.594;-117.718;2022-08-04T11:02:54;22.20;;;9.80;;
16524;SDS011;8375;33.594;-117.718;2022-08-04T11:05:35;19.67;;;9.83;;
16524;SDS011;8375;33.594;-117.718;2022-08-04T11:08:13;17.07;;;9.50;;
16524;SDS011;8375;33.594;-117.718;2022-08-04T11:10:45;20.83;;;9.80;;
16524;SDS011;8375;33.594;-117.718;2022-08-04T11:13:19;41.37;;;12.00;;
16524;SDS011;8375;33.594;-117.718;2022-08-04T11:15:52;32.53;;;11.50;;
16524;SDS011;8375;33.594;-117.718;2022-08-04T11:18:24;24.33;;;10.00;;
16524;SDS011;8375;33.594;-117.718;2022-08-04T11:21:01;21.43;;;10.20;;
16524;SDS011;8375;33.594;-117.718;2022-08-04T11:23:37;19.73;;;9.63;;
16524;SDS011;8375;33.594;-117.718;2022-08-04T11:26:15;22.03;;;10.57;;
16524;SDS011;8375;33.594;-117.718;2022-08-04T11:28:55;19.83;;;9.50;;
16524;SDS011;8375;33.594;-117.718;2022-08-04T11:31:31;19.63;;;9.73;;
16524;SDS011;8375;33.594;-117.718;2022-08-04T11:34:08;21.53;;;9.57;;
16524;SDS011;8375;33.594;-117.718;2022-08-04T11:36:48;18.53;;;9.80;;
16524;SDS011;8375;33.594;-117.718;2022-08-04T11:39:24;21.07;;;9.77;;
16524;SDS011;8375;33.594;-117.718;2022-08-04T11:41:57;19.47;;;8.67;;
16524;SDS011;8375;33.594;-117.718;2022-08-04T11:44:34;15.67;;;8.03;;
16524;SDS011;8375;33.594;-117.718;2022-08-04T11:47:14;18.20;;;8.90;;
16524;SDS011;8375;33.594;-117.718;2022-08-04T11:49:53;13.03;;;8.43;;
16524;SDS011;8375;33.594;-117.718;2022-08-04T11:52:27;14.33;;;9.10;;
16524;SDS011;8375;33.594;-117.718;2022-08-04T11:54:59;14.73;;;8.27;;
16524;SDS011;8375;33.594;-117.718;2022-08-04T11:57:32;16.30;;;8.70;;
16524;SDS011;8375;33.594;-117.718;2022-08-04T12:00:03;15.53;;;8.53;;
16524;SDS011;8375;33.594;-117.718;2022-08-04T12:02:58;16.97;;;9.47;;
16524;SDS011;8375;33.594;-117.718;2022-08-04T12:05:42;14.77;;;9.67;;
16524;SDS011;8375;33.594;-117.718;2022-08-04T12:08:25;13.63;;;8.80;;
16524;SDS011;8375;33.594;-117.718;2022-08-04T12:11:10;11.90;;;8.60;;
16524;SDS011;8375;33.594;-117.718;2022-08-04T12:13:49;17.23;;;8.93;;
16524;SDS011;8375;33.594;-117.718;2022-08-04T12:16:31;12.13;;;8.00;;
16524;SDS011;8375;33.594;-117.718;2022-08-04T12:19:08;14.97;;;9.70;;
16524;SDS011;8375;33.594;-117.718;2022-08-04T12:21:45;15.23;;;9.50;;
16524;SDS011;8375;33.594;-117.718;2022-08-04T12:24:18;13.40;;;9.90;;
16524;SDS011;8375;33.594;-117.718;2022-08-04T12:26:50;15.67;;;10.57;;
16524;SDS011;8375;33.594;-117.718;2022-08-04T12:29:21;17.77;;;11.13;;
16524;SDS011;8375;33.594;-117.718;2022-08-04T12:31:54;13.83;;;10.17;;
16524;SDS011;8375;33.594;-117.718;2022-08-04T12:34:25;18.70;;;11.43;;
16524;SDS011;8375;33.594;-117.718;2022-08-04T12:37:01;16.30;;;10.87;;
16524;SDS011;8375;33.594;-117.718;2022-08-04T12:39:37;16.00;;;10.40;;
16524;SDS011;8375;33.594;-117.718;2022-08-04T12:42:13;15.90;;;10.13;;
16524;SDS011;8375;33.594;-117.718;2022-08-04T12:44:45;19.17;;;10.87;;
16524;SDS011;8375;33.594;-117.718;2022-08-04T12:47:22;16.63;;;10.07;;
16524;SDS011;8375;33.594;-117.718;2022-08-04T12:49:53;17.53;;;9.60;;
16524;SDS011;8375;33.594;-117.718;2022-08-04T12:52:25;14.70;;;10.50;;
16524;SDS011;8375;33.594;-117.718;2022-08-04T12:54:55;15.47;;;9.87;;
16524;SDS011;8375;33.594;-117.718;2022-08-04T12:57:25;13.07;;;9.80;;
16524;SDS011;8375;33.594;-117.718;2022-08-04T12:59:54;16.13;;;9.13;;
16524;SDS011;8375;33.594;-117.718;2022-08-04T13:02:26;17.97;;;10.10;;
16524;SDS011;8375;33.594;-117.718;2022-08-04T13:04:57;12.43;;;9.30;;
16524;SDS011;8375;33.594;-117.718;2022-08-04T13:07:34;17.93;;;10.10;;
16524;SDS011;8375;33.594;-117.718;2022-08-04T13:10:10;15.90;;;9.57;;
16524;SDS011;8375;33.594;-117.718;2022-08-04T13:12:40;18.63;;;10.20;;
16524;SDS011;8375;33.594;-117.718;2022-08-04T13:15:11;16.03;;;10.27;;
16524;SDS011;8375;33.594;-117.718;2022-08-04T13:17:47;18.83;;;9.70;;
16524;SDS011;8375;33.594;-117.718;2022-08-04T13:20:23;14.53;;;9.60;;
16524;SDS011;8375;33.594;-117.718;2022-08-04T13:25:40;13.43;;;9.53;;
16524;SDS011;8375;33.594;-117.718;2022-08-04T13:28:12;15.23;;;9.37;;
16524;SDS011;8375;33.594;-117.718;2022-08-04T13:30:43;17.10;;;9.53;;
16524;SDS011;8375;33.594;-117.718;2022-08-04T13:33:16;18.40;;;10.30;;
16524;SDS011;8375;33.594;-117.718;2022-08-04T13:35:45;17.37;;;10.13;;
16524;SDS011;8375;33.594;-117.718;2022-08-04T13:38:15;19.27;;;9.90;;
16524;SDS011;8375;33.594;-117.718;2022-08-04T13:40:45;18.67;;;10.23;;
16524;SDS011;8375;33.594;-117.718;2022-08-04T13:43:21;16.60;;;9.97;;
16524;SDS011;8375;33.594;-117.718;2022-08-04T13:45:58;14.53;;;10.20;;
16524;SDS011;8375;33.594;-117.718;2022-08-04T13:48:33;16.00;;;10.10;;
16524;SDS011;8375;33.594;-117.718;2022-08-04T13:51:05;17.23;;;10.80;;
16524;SDS011;8375;33.594;-117.718;2022-08-04T13:53:36;20.93;;;10.40;;
16524;SDS011;8375;33.594;-117.718;2022-08-04T13:56:08;17.87;;;9.67;;
16524;SDS011;8375;33.594;-117.718;2022-08-04T13:58:38;13.73;;;9.97;;
16524;SDS011;8375;33.594;-117.718;2022-08-04T14:01:13;16.57;;;9.90;;
16524;SDS011;8375;33.594;-117.718;2022-08-04T14:03:54;18.37;;;9.97;;
16524;SDS011;8375;33.594;-117.718;2022-08-04T14:06:30;15.33;;;8.97;;
16524;SDS011;8375;33.594;-117.718;2022-08-04T14:09:02;20.90;;;10.57;;
16524;SDS011;8375;33.594;-117.718;2022-08-04T14:11:39;16.20;;;9.63;;
16524;SDS011;8375;33.594;-117.718;2022-08-04T14:14:13;16.90;;;9.77;;
16524;SDS011;8375;33.594;-117.718;2022-08-04T14:16:55;15.23;;;9.53;;
16524;SDS011;8375;33.594;-117.718;2022-08-04T14:19:27;14.83;;;9.27;;
16524;SDS011;8375;33.594;-117.718;2022-08-04T14:22:26;15.23;;;10.03;;
16524;SDS011;8375;33.594;-117.718;2022-08-04T14:25:00;19.33;;;10.17;;
16524;SDS011;8375;33.594;-117.718;2022-08-04T14:27:39;13.23;;;9.40;;
16524;SDS011;8375;33.594;-117.718;2022-08-04T14:30:19;15.53;;;9.23;;
16524;SDS011;8375;33.594;-117.718;2022-08-04T14:32:53;13.10;;;9.07;;
16524;SDS011;8375;33.594;-117.718;2022-08-04T14:35:24;14.27;;;9.13;;
16524;SDS011;8375;33.594;-117.718;2022-08-04T14:37:53;19.57;;;10.57;;
16524;SDS011;8375;33.594;-117.718;2022-08-04T14:40:23;18.17;;;10.07;;
16524;SDS011;8375;33.594;-117.718;2022-08-04T14:42:53;17.43;;;10.63;;
16524;SDS011;8375;33.594;-117.718;2022-08-04T14:45:28;16.10;;;10.17;;
16524;SDS011;8375;33.594;-117.718;2022-08-04T14:47:58;18.57;;;10.73;;
16524;SDS011;8375;33.594;-117.718;2022-08-04T14:50:37;20.27;;;10.67;;
16524;SDS011;8375;33.594;-117.718;2022-08-04T14:53:08;22.03;;;11.53;;
16524;SDS011;8375;33.594;-117.718;2022-08-04T14:55:38;20.43;;;10.90;;
16524;SDS011;8375;33.594;-117.718;2022-08-04T14:58:15;16.20;;;9.43;;
16524;SDS011;8375;33.594;-117.718;2022-08-04T15:00:45;17.13;;;10.43;;
16524;SDS011;8375;33.594;-117.718;2022-08-04T15:03:14;23.80;;;10.37;;
16524;SDS011;8375;33.594;-117.718;2022-08-04T15:05:46;13.43;;;9.40;;
16524;SDS011;8375;33.594;-117.718;2022-08-04T15:08:15;16.03;;;9.50;;
16524;SDS011;8375;33.594;-117.718;2022-08-04T15:10:44;15.97;;;9.50;;
16524;SDS011;8375;33.594;-117.718;2022-08-04T15:13:13;17.57;;;9.60;;
16524;SDS011;8375;33.594;-117.718;2022-08-04T15:15:42;15.97;;;10.73;;
16524;SDS011;8375;33.594;-117.718;2022-08-04T15:18:11;19.23;;;10.43;;
16524;SDS011;8375;33.594;-117.718;2022-08-04T15:20:39;16.77;;;10.27;;
16524;SDS011;8375;33.594;-117.718;2022-08-04T15:23:09;19.43;;;9.87;;
16524;SDS011;8375;33.594;-117.718;2022-08-04T15:25:39;14.73;;;9.73;;
16524;SDS011;8375;33.594;-117.718;2022-08-04T15:28:13;13.97;;;9.60;;
16524;SDS011;8375;33.594;-117.718;2022-08-04T15:30:44;14.00;;;9.17;;
16524;SDS011;8375;33.594;-117.718;2022-08-04T15:33:14;18.80;;;9.07;;
16524;SDS011;8375;33.594;-117.718;2022-08-04T15:35:48;14.07;;;9.37;;
16524;SDS011;8375;33.594;-117.718;2022-08-04T15:38:25;12.60;;;8.70;;
16524;SDS011;8375;33.594;-117.718;2022-08-04T15:41:01;17.55;;;8.57;;
16524;SDS011;8375;33.594;-117.718;2022-08-04T15:43:41;15.75;;;8.32;;
16524;SDS011;8375;33.594;-117.718;2022-08-04T15:46:16;13.10;;;7.82;;
16524;SDS011;8375;33.594;-117.718;2022-08-04T15:49:17;14.70;;;8.80;;
16524;SDS011;8375;33.594;-117.718;2022-08-04T15:51:46;13.32;;;7.72;;
16524;SDS011;8375;33.594;-117.718;2022-08-04T15:54:27;16.33;;;8.32;;
16524;SDS011;8375;33.594;-117.718;2022-08-04T15:56:56;11.48;;;7.60;;
16524;SDS011;8375;33.594;-117.718;2022-08-04T16:02:36;13.52;;;7.93;;
16524;SDS011;8375;33.594;-117.718;2022-08-04T16:08:13;11.90;;;7.75;;
16524;SDS011;8375;33.594;-117.718;2022-08-04T16:10:47;12.38;;;7.70;;